sensor_id;sensor_type;location;lat;lon;timestamp;temperature;humidity
5850;DHT22;2951;47.712;9.400;2023-06-24T00:00:16;18.50;99.90
5850;DHT22;2951;47.712;9.400;2023-06-24T00:02:45;18.50;99.90
5850;DHT22;2951;47.712;9.400;2023-06-24T00:05:12;18.40;99.90
5850;DHT22;2951;47.712;9.400;2023-06-24T00:07:39;18.40;99.90
5850;DHT22;2951;47.712;9.400;2023-06-24T00:10:12;18.40;99.90
5850;DHT22;2951;47.712;9.400;2023-06-24T00:12:39;18.40;99.90
5850;DHT22;2951;47.712;9.400;2023-06-24T00:15:06;18.40;99.90
5850;DHT22;2951;47.712;9.400;2023-06-24T00:17:33;18.30;99.90
5850;DHT22;2951;47.712;9.400;2023-06-24T00:19:59;18.30;99.90
5850;DHT22;2951;47.712;9.400;2023-06-24T00:22:26;18.30;99.90
5850;DHT22;2951;47.712;9.400;2023-06-24T00:24:53;18.30;99.90
5850;DHT22;2951;47.712;9.400;2023-06-24T00:27:19;18.30;99.90
5850;DHT22;2951;47.712;9.400;2023-06-24T00:29:46;18.30;99.90
5850;DHT22;2951;47.712;9.400;2023-06-24T00:32:13;18.30;99.90
5850;DHT22;2951;47.712;9.400;2023-06-24T00:34:39;18.30;99.90
5850;DHT22;2951;47.712;9.400;2023-06-24T00:37:09;18.30;99.90
5850;DHT22;2951;47.712;9.400;2023-06-24T00:39:36;18.30;99.90
5850;DHT22;2951;47.712;9.400;2023-06-24T00:42:03;18.30;99.90
5850;DHT22;2951;47.712;9.400;2023-06-24T00:44:30;18.20;99.90
5850;DHT22;2951;47.712;9.400;2023-06-24T00:46:57;18.20;99.90
5850;DHT22;2951;47.712;9.400;2023-06-24T00:49:23;18.10;99.90
5850;DHT22;2951;47.712;9.400;2023-06-24T00:51:50;18.20;99.90
5850;DHT22;2951;47.712;9.400;2023-06-24T00:54:17;18.20;99.90
5850;DHT22;2951;47.712;9.400;2023-06-24T00:56:45;18.20;99.90
5850;DHT22;2951;47.712;9.400;2023-06-24T00:59:13;18.20;99.90
5850;DHT22;2951;47.712;9.400;2023-06-24T01:01:40;18.20;99.90
5850;DHT22;2951;47.712;9.400;2023-06-24T01:04:07;18.30;99.90
5850;DHT22;2951;47.712;9.400;2023-06-24T01:06:34;18.30;99.90
5850;DHT22;2951;47.712;9.400;2023-06-24T01:09:01;18.30;99.90
5850;DHT22;2951;47.712;9.400;2023-06-24T01:11:29;18.30;99.90
5850;DHT22;2951;47.712;9.400;2023-06-24T01:13:56;18.30;99.90
5850;DHT22;2951;47.712;9.400;2023-06-24T01:18:51;18.20;99.90
5850;DHT22;2951;47.712;9.400;2023-06-24T01:21:30;18.10;99.90
5850;DHT22;2951;47.712;9.400;2023-06-24T01:24:17;18.10;99.90
5850;DHT22;2951;47.712;9.400;2023-06-24T01:32:05;18.10;99.90
5850;DHT22;2951;47.712;9.400;2023-06-24T01:34:43;18.10;99.90
5850;DHT22;2951;47.712;9.400;2023-06-24T01:37:30;18.00;99.90
5850;DHT22;2951;47.712;9.400;2023-06-24T01:42:44;18.00;99.90
5850;DHT22;2951;47.712;9.400;2023-06-24T01:45:16;18.00;99.90
5850;DHT22;2951;47.712;9.400;2023-06-24T01:47:45;18.00;99.90
5850;DHT22;2951;47.712;9.400;2023-06-24T01:50:14;17.90;99.90
5850;DHT22;2951;47.712;9.400;2023-06-24T01:52:41;17.90;99.90
5850;DHT22;2951;47.712;9.400;2023-06-24T01:55:09;17.70;99.90
5850;DHT22;2951;47.712;9.400;2023-06-24T01:57:37;17.30;99.90
5850;DHT22;2951;47.712;9.400;2023-06-24T02:00:05;17.10;99.90
5850;DHT22;2951;47.712;9.400;2023-06-24T02:02:32;16.70;99.90
5850;DHT22;2951;47.712;9.400;2023-06-24T02:05:00;16.60;99.90
5850;DHT22;2951;47.712;9.400;2023-06-24T02:07:28;16.50;99.90
5850;DHT22;2951;47.712;9.400;2023-06-24T02:09:56;16.30;99.90
5850;DHT22;2951;47.712;9.400;2023-06-24T02:12:24;16.30;99.90
5850;DHT22;2951;47.712;9.400;2023-06-24T02:14:51;16.20;99.90
5850;DHT22;2951;47.712;9.400;2023-06-24T02:17:19;16.30;99.90
5850;DHT22;2951;47.712;9.400;2023-06-24T02:19:45;16.30;99.90
5850;DHT22;2951;47.712;9.400;2023-06-24T02:22:13;16.20;99.90
5850;DHT22;2951;47.712;9.400;2023-06-24T02:24:41;16.10;99.90
5850;DHT22;2951;47.712;9.400;2023-06-24T02:27:08;16.00;99.90
5850;DHT22;2951;47.712;9.400;2023-06-24T02:29:35;15.90;99.90
5850;DHT22;2951;47.712;9.400;2023-06-24T02:32:03;15.80;99.90
5850;DHT22;2951;47.712;9.400;2023-06-24T02:34:30;15.90;99.90
5850;DHT22;2951;47.712;9.400;2023-06-24T02:36:57;15.90;99.90
5850;DHT22;2951;47.712;9.400;2023-06-24T02:39:24;15.90;99.90
5850;DHT22;2951;47.712;9.400;2023-06-24T02:41:50;15.90;99.90
5850;DHT22;2951;47.712;9.400;2023-06-24T02:44:17;15.70;99.90
5850;DHT22;2951;47.712;9.400;2023-06-24T02:46:44;15.80;99.90
5850;DHT22;2951;47.712;9.400;2023-06-24T02:49:13;15.80;99.90
5850;DHT22;2951;47.712;9.400;2023-06-24T02:51:40;15.80;99.90
5850;DHT22;2951;47.712;9.400;2023-06-24T02:54:07;15.80;99.90
5850;DHT22;2951;47.712;9.400;2023-06-24T02:56:35;15.90;99.90
5850;DHT22;2951;47.712;9.400;2023-06-24T02:59:08;15.90;99.90
5850;DHT22;2951;47.712;9.400;2023-06-24T03:01:36;15.90;99.90
5850;DHT22;2951;47.712;9.400;2023-06-24T03:04:05;15.90;99.90
5850;DHT22;2951;47.712;9.400;2023-06-24T03:06:32;15.70;99.90
5850;DHT22;2951;47.712;9.400;2023-06-24T03:08:59;15.60;99.90
5850;DHT22;2951;47.712;9.400;2023-06-24T03:11:26;15.60;99.90
5850;DHT22;2951;47.712;9.400;2023-06-24T03:13:54;15.60;99.90
5850;DHT22;2951;47.712;9.400;2023-06-24T03:16:21;15.60;99.90
5850;DHT22;2951;47.712;9.400;2023-06-24T03:18:47;15.60;99.90
5850;DHT22;2951;47.712;9.400;2023-06-24T03:21:14;15.50;99.90
5850;DHT22;2951;47.712;9.400;2023-06-24T03:23:41;15.50;99.90
5850;DHT22;2951;47.712;9.400;2023-06-24T03:26:08;15.30;99.90
5850;DHT22;2951;47.712;9.400;2023-06-24T03:28:34;15.40;99.90
5850;DHT22;2951;47.712;9.400;2023-06-24T03:31:01;15.40;99.90
5850;DHT22;2951;47.712;9.400;2023-06-24T03:33:28;15.40;99.90
5850;DHT22;2951;47.712;9.400;2023-06-24T03:35:54;15.40;99.90
5850;DHT22;2951;47.712;9.400;2023-06-24T03:38:21;15.40;99.90
5850;DHT22;2951;47.712;9.400;2023-06-24T03:40:48;15.50;99.90
5850;DHT22;2951;47.712;9.400;2023-06-24T03:43:15;15.40;99.90
5850;DHT22;2951;47.712;9.400;2023-06-24T03:45:42;15.30;99.90
5850;DHT22;2951;47.712;9.400;2023-06-24T03:48:08;15.30;99.90
5850;DHT22;2951;47.712;9.400;2023-06-24T03:50:37;15.30;99.90
5850;DHT22;2951;47.712;9.400;2023-06-24T03:53:04;15.40;99.90
5850;DHT22;2951;47.712;9.400;2023-06-24T03:55:31;15.40;99.90
5850;DHT22;2951;47.712;9.400;2023-06-24T03:57:58;15.40;99.90
5850;DHT22;2951;47.712;9.400;2023-06-24T04:00:25;15.40;99.90
5850;DHT22;2951;47.712;9.400;2023-06-24T04:02:52;15.20;99.90
5850;DHT22;2951;47.712;9.400;2023-06-24T04:05:20;15.20;99.90
5850;DHT22;2951;47.712;9.400;2023-06-24T04:07:47;15.20;99.90
5850;DHT22;2951;47.712;9.400;2023-06-24T04:10:15;15.20;99.90
5850;DHT22;2951;47.712;9.400;2023-06-24T04:12:42;15.20;99.90
5850;DHT22;2951;47.712;9.400;2023-06-24T04:15:08;15.20;99.90
5850;DHT22;2951;47.712;9.400;2023-06-24T04:17:35;15.20;99.90
5850;DHT22;2951;47.712;9.400;2023-06-24T04:20:02;15.30;99.90
5850;DHT22;2951;47.712;9.400;2023-06-24T04:22:32;15.30;99.90
5850;DHT22;2951;47.712;9.400;2023-06-24T04:24:59;15.30;99.90
5850;DHT22;2951;47.712;9.400;2023-06-24T04:27:25;15.10;99.90
5850;DHT22;2951;47.712;9.400;2023-06-24T04:29:52;15.10;99.90
5850;DHT22;2951;47.712;9.400;2023-06-24T04:32:19;15.00;99.90
5850;DHT22;2951;47.712;9.400;2023-06-24T04:34:45;15.00;99.90
5850;DHT22;2951;47.712;9.400;2023-06-24T04:37:12;15.00;99.90
5850;DHT22;2951;47.712;9.400;2023-06-24T04:39:39;15.00;99.90
5850;DHT22;2951;47.712;9.400;2023-06-24T04:42:06;15.00;99.90
5850;DHT22;2951;47.712;9.400;2023-06-24T04:44:33;15.00;99.90
5850;DHT22;2951;47.712;9.400;2023-06-24T04:46:59;15.00;99.90
5850;DHT22;2951;47.712;9.400;2023-06-24T04:49:26;15.10;99.90
5850;DHT22;2951;47.712;9.400;2023-06-24T04:51:53;15.10;99.90
5850;DHT22;2951;47.712;9.400;2023-06-24T04:54:19;15.10;99.90
5850;DHT22;2951;47.712;9.400;2023-06-24T04:56:46;15.00;99.90
5850;DHT22;2951;47.712;9.400;2023-06-24T04:59:15;15.00;99.90
5850;DHT22;2951;47.712;9.400;2023-06-24T05:01:42;15.10;99.90
5850;DHT22;2951;47.712;9.400;2023-06-24T05:04:09;15.30;99.90
5850;DHT22;2951;47.712;9.400;2023-06-24T05:06:35;15.30;99.90
5850;DHT22;2951;47.712;9.400;2023-06-24T05:09:02;15.50;99.90
5850;DHT22;2951;47.712;9.400;2023-06-24T05:11:29;15.50;99.90
5850;DHT22;2951;47.712;9.400;2023-06-24T05:13:56;15.60;99.90
5850;DHT22;2951;47.712;9.400;2023-06-24T05:16:22;15.70;99.90
5850;DHT22;2951;47.712;9.400;2023-06-24T05:18:50;15.80;99.90
5850;DHT22;2951;47.712;9.400;2023-06-24T05:21:17;15.90;99.90
5850;DHT22;2951;47.712;9.400;2023-06-24T05:23:44;16.10;99.90
5850;DHT22;2951;47.712;9.400;2023-06-24T05:26:10;16.30;99.90
5850;DHT22;2951;47.712;9.400;2023-06-24T05:28:38;16.50;99.90
5850;DHT22;2951;47.712;9.400;2023-06-24T05:31:04;16.70;99.90
5850;DHT22;2951;47.712;9.400;2023-06-24T05:33:31;17.00;99.90
5850;DHT22;2951;47.712;9.400;2023-06-24T05:35:58;17.60;99.90
5850;DHT22;2951;47.712;9.400;2023-06-24T05:38:25;18.00;99.90
5850;DHT22;2951;47.712;9.400;2023-06-24T05:40:51;18.20;99.90
5850;DHT22;2951;47.712;9.400;2023-06-24T05:43:18;18.40;99.90
5850;DHT22;2951;47.712;9.400;2023-06-24T05:45:45;18.50;99.90
5850;DHT22;2951;47.712;9.400;2023-06-24T05:48:12;18.60;99.90
5850;DHT22;2951;47.712;9.400;2023-06-24T05:50:38;18.60;99.90
5850;DHT22;2951;47.712;9.400;2023-06-24T05:53:05;18.70;99.90
5850;DHT22;2951;47.712;9.400;2023-06-24T05:55:32;18.70;99.90
5850;DHT22;2951;47.712;9.400;2023-06-24T05:57:59;18.80;99.90
5850;DHT22;2951;47.712;9.400;2023-06-24T06:00:26;18.60;99.90
5850;DHT22;2951;47.712;9.400;2023-06-24T06:02:52;18.80;99.90
5850;DHT22;2951;47.712;9.400;2023-06-24T06:05:19;19.00;99.90
5850;DHT22;2951;47.712;9.400;2023-06-24T06:07:46;19.00;99.90
5850;DHT22;2951;47.712;9.400;2023-06-24T06:10:13;19.00;99.90
5850;DHT22;2951;47.712;9.400;2023-06-24T06:12:42;19.10;99.90
5850;DHT22;2951;47.712;9.400;2023-06-24T06:15:08;19.20;99.90
5850;DHT22;2951;47.712;9.400;2023-06-24T06:17:35;19.20;99.90
5850;DHT22;2951;47.712;9.400;2023-06-24T06:20:02;19.10;99.90
5850;DHT22;2951;47.712;9.400;2023-06-24T06:22:29;19.20;99.90
5850;DHT22;2951;47.712;9.400;2023-06-24T06:24:55;19.30;99.90
5850;DHT22;2951;47.712;9.400;2023-06-24T06:27:22;19.30;99.90
5850;DHT22;2951;47.712;9.400;2023-06-24T06:29:49;19.40;99.90
5850;DHT22;2951;47.712;9.400;2023-06-24T06:32:15;19.40;99.90
5850;DHT22;2951;47.712;9.400;2023-06-24T06:34:43;19.50;99.90
5850;DHT22;2951;47.712;9.400;2023-06-24T06:37:10;19.60;99.90
5850;DHT22;2951;47.712;9.400;2023-06-24T06:39:36;19.60;99.90
5850;DHT22;2951;47.712;9.400;2023-06-24T06:42:03;19.60;99.90
5850;DHT22;2951;47.712;9.400;2023-06-24T06:44:30;19.80;99.90
5850;DHT22;2951;47.712;9.400;2023-06-24T06:46:56;19.90;99.90
5850;DHT22;2951;47.712;9.400;2023-06-24T06:49:23;20.00;99.90
5850;DHT22;2951;47.712;9.400;2023-06-24T06:51:51;19.90;99.90
5850;DHT22;2951;47.712;9.400;2023-06-24T06:54:18;19.90;99.90
5850;DHT22;2951;47.712;9.400;2023-06-24T06:56:45;20.10;99.90
5850;DHT22;2951;47.712;9.400;2023-06-24T06:59:12;20.20;99.90
5850;DHT22;2951;47.712;9.400;2023-06-24T07:01:38;20.30;99.90
5850;DHT22;2951;47.712;9.400;2023-06-24T07:04:05;20.20;99.90
5850;DHT22;2951;47.712;9.400;2023-06-24T07:06:32;20.30;99.90
5850;DHT22;2951;47.712;9.400;2023-06-24T07:08:59;20.30;99.90
5850;DHT22;2951;47.712;9.400;2023-06-24T07:11:26;20.50;99.90
5850;DHT22;2951;47.712;9.400;2023-06-24T07:13:52;20.60;99.90
5850;DHT22;2951;47.712;9.400;2023-06-24T07:16:19;20.90;99.90
5850;DHT22;2951;47.712;9.400;2023-06-24T07:18:46;21.00;99.90
5850;DHT22;2951;47.712;9.400;2023-06-24T07:21:13;21.10;99.90
5850;DHT22;2951;47.712;9.400;2023-06-24T07:23:40;21.20;99.90
5850;DHT22;2951;47.712;9.400;2023-06-24T07:26:08;21.30;99.90
5850;DHT22;2951;47.712;9.400;2023-06-24T07:28:34;21.30;99.90
5850;DHT22;2951;47.712;9.400;2023-06-24T07:31:01;21.30;99.90
5850;DHT22;2951;47.712;9.400;2023-06-24T07:33:28;21.30;99.90
5850;DHT22;2951;47.712;9.400;2023-06-24T07:35:57;21.20;99.90
5850;DHT22;2951;47.712;9.400;2023-06-24T07:38:23;21.40;99.90
5850;DHT22;2951;47.712;9.400;2023-06-24T07:40:50;21.40;99.90
5850;DHT22;2951;47.712;9.400;2023-06-24T07:43:17;21.60;99.90
5850;DHT22;2951;47.712;9.400;2023-06-24T07:45:43;21.50;99.90
5850;DHT22;2951;47.712;9.400;2023-06-24T07:48:10;21.60;99.90
5850;DHT22;2951;47.712;9.400;2023-06-24T07:50:38;21.70;99.90
5850;DHT22;2951;47.712;9.400;2023-06-24T07:53:05;21.80;99.90
5850;DHT22;2951;47.712;9.400;2023-06-24T07:55:31;21.70;99.90
5850;DHT22;2951;47.712;9.400;2023-06-24T07:57:58;21.90;99.90
5850;DHT22;2951;47.712;9.400;2023-06-24T08:00:25;22.10;99.90
5850;DHT22;2951;47.712;9.400;2023-06-24T08:02:52;22.00;99.90
5850;DHT22;2951;47.712;9.400;2023-06-24T08:05:20;22.20;99.90
5850;DHT22;2951;47.712;9.400;2023-06-24T08:07:47;22.40;99.90
5850;DHT22;2951;47.712;9.400;2023-06-24T08:10:13;22.50;99.90
5850;DHT22;2951;47.712;9.400;2023-06-24T08:12:40;22.50;99.90
5850;DHT22;2951;47.712;9.400;2023-06-24T08:15:07;22.70;99.90
5850;DHT22;2951;47.712;9.400;2023-06-24T08:17:34;22.70;99.90
5850;DHT22;2951;47.712;9.400;2023-06-24T08:20:03;22.80;99.90
5850;DHT22;2951;47.712;9.400;2023-06-24T08:22:30;22.80;99.90
5850;DHT22;2951;47.712;9.400;2023-06-24T08:24:58;22.90;99.90
5850;DHT22;2951;47.712;9.400;2023-06-24T08:27:24;23.10;99.90
5850;DHT22;2951;47.712;9.400;2023-06-24T08:29:51;23.10;99.90
5850;DHT22;2951;47.712;9.400;2023-06-24T08:32:18;22.90;99.90
5850;DHT22;2951;47.712;9.400;2023-06-24T08:34:44;22.70;99.90
5850;DHT22;2951;47.712;9.400;2023-06-24T08:37:11;22.50;99.90
5850;DHT22;2951;47.712;9.400;2023-06-24T08:39:38;22.60;99.90
5850;DHT22;2951;47.712;9.400;2023-06-24T08:42:05;22.90;99.90
5850;DHT22;2951;47.712;9.400;2023-06-24T08:44:32;23.10;99.90
5850;DHT22;2951;47.712;9.400;2023-06-24T08:46:58;23.10;99.90
5850;DHT22;2951;47.712;9.400;2023-06-24T08:49:27;23.30;99.90
5850;DHT22;2951;47.712;9.400;2023-06-24T08:52:07;23.60;99.90
5850;DHT22;2951;47.712;9.400;2023-06-24T08:54:35;23.60;99.90
5850;DHT22;2951;47.712;9.400;2023-06-24T08:57:02;23.60;99.90
5850;DHT22;2951;47.712;9.400;2023-06-24T08:59:33;23.60;99.90
5850;DHT22;2951;47.712;9.400;2023-06-24T09:02:00;23.60;99.90
5850;DHT22;2951;47.712;9.400;2023-06-24T09:04:27;23.60;99.90
5850;DHT22;2951;47.712;9.400;2023-06-24T09:06:53;23.70;99.90
5850;DHT22;2951;47.712;9.400;2023-06-24T09:09:21;23.70;99.90
5850;DHT22;2951;47.712;9.400;2023-06-24T09:11:51;23.60;99.90
5850;DHT22;2951;47.712;9.400;2023-06-24T09:14:19;23.40;99.90
5850;DHT22;2951;47.712;9.400;2023-06-24T09:16:52;23.40;99.90
5850;DHT22;2951;47.712;9.400;2023-06-24T09:19:20;23.50;99.90
5850;DHT22;2951;47.712;9.400;2023-06-24T09:21:46;23.80;99.90
5850;DHT22;2951;47.712;9.400;2023-06-24T09:24:13;24.10;99.90
5850;DHT22;2951;47.712;9.400;2023-06-24T09:26:42;24.20;99.90
5850;DHT22;2951;47.712;9.400;2023-06-24T09:29:09;24.10;99.90
5850;DHT22;2951;47.712;9.400;2023-06-24T09:31:35;23.90;99.90
5850;DHT22;2951;47.712;9.400;2023-06-24T09:34:02;23.70;99.90
5850;DHT22;2951;47.712;9.400;2023-06-24T09:36:29;23.80;99.90
5850;DHT22;2951;47.712;9.400;2023-06-24T09:39:02;23.70;99.90
5850;DHT22;2951;47.712;9.400;2023-06-24T09:41:40;24.10;99.90
5850;DHT22;2951;47.712;9.400;2023-06-24T09:44:08;24.00;99.90
5850;DHT22;2951;47.712;9.400;2023-06-24T09:46:37;23.90;99.90
5850;DHT22;2951;47.712;9.400;2023-06-24T09:49:04;24.10;99.90
5850;DHT22;2951;47.712;9.400;2023-06-24T09:51:33;24.10;99.90
5850;DHT22;2951;47.712;9.400;2023-06-24T09:54:01;24.30;99.90
5850;DHT22;2951;47.712;9.400;2023-06-24T09:56:29;24.60;99.90
5850;DHT22;2951;47.712;9.400;2023-06-24T09:58:55;24.70;99.90
5850;DHT22;2951;47.712;9.400;2023-06-24T10:01:22;24.40;99.90
5850;DHT22;2951;47.712;9.400;2023-06-24T10:03:49;24.80;99.90
5850;DHT22;2951;47.712;9.400;2023-06-24T10:06:16;25.00;99.90
5850;DHT22;2951;47.712;9.400;2023-06-24T10:08:43;25.00;99.90
5850;DHT22;2951;47.712;9.400;2023-06-24T10:11:10;25.20;99.90
5850;DHT22;2951;47.712;9.400;2023-06-24T10:13:37;25.20;99.90
5850;DHT22;2951;47.712;9.400;2023-06-24T10:16:04;25.10;99.90
5850;DHT22;2951;47.712;9.400;2023-06-24T10:21:00;24.80;99.90
5850;DHT22;2951;47.712;9.400;2023-06-24T10:23:38;24.90;99.90
5850;DHT22;2951;47.712;9.400;2023-06-24T10:26:09;24.60;99.90
5850;DHT22;2951;47.712;9.400;2023-06-24T10:31:43;25.00;99.90
5850;DHT22;2951;47.712;9.400;2023-06-24T10:36:55;25.00;99.90
5850;DHT22;2951;47.712;9.400;2023-06-24T10:44:48;24.90;99.90
5850;DHT22;2951;47.712;9.400;2023-06-24T10:47:14;24.90;99.90
5850;DHT22;2951;47.712;9.400;2023-06-24T10:49:41;24.70;99.90
5850;DHT22;2951;47.712;9.400;2023-06-24T10:52:09;25.00;99.90
5850;DHT22;2951;47.712;9.400;2023-06-24T10:54:37;25.00;99.90
5850;DHT22;2951;47.712;9.400;2023-06-24T10:57:04;25.00;99.90
5850;DHT22;2951;47.712;9.400;2023-06-24T10:59:34;25.10;99.90
5850;DHT22;2951;47.712;9.400;2023-06-24T11:02:01;25.10;99.90
5850;DHT22;2951;47.712;9.400;2023-06-24T11:04:28;25.40;99.90
5850;DHT22;2951;47.712;9.400;2023-06-24T11:07:01;25.50;99.90
5850;DHT22;2951;47.712;9.400;2023-06-24T11:09:28;25.80;99.90
5850;DHT22;2951;47.712;9.400;2023-06-24T11:11:55;25.70;99.90
5850;DHT22;2951;47.712;9.400;2023-06-24T11:14:22;25.90;99.90
5850;DHT22;2951;47.712;9.400;2023-06-24T11:16:49;25.90;99.90
5850;DHT22;2951;47.712;9.400;2023-06-24T11:19:16;25.90;99.90
5850;DHT22;2951;47.712;9.400;2023-06-24T11:21:43;26.00;99.90
5850;DHT22;2951;47.712;9.400;2023-06-24T11:24:10;25.70;99.90
5850;DHT22;2951;47.712;9.400;2023-06-24T11:26:38;25.60;99.90
5850;DHT22;2951;47.712;9.400;2023-06-24T11:29:10;25.30;99.90
5850;DHT22;2951;47.712;9.400;2023-06-24T11:31:37;25.60;99.90
5850;DHT22;2951;47.712;9.400;2023-06-24T11:34:04;25.70;99.90
5850;DHT22;2951;47.712;9.400;2023-06-24T11:36:32;25.50;99.90
5850;DHT22;2951;47.712;9.400;2023-06-24T11:38:59;25.80;99.90
5850;DHT22;2951;47.712;9.400;2023-06-24T11:41:25;26.10;99.90
5850;DHT22;2951;47.712;9.400;2023-06-24T11:43:53;26.30;99.90
5850;DHT22;2951;47.712;9.400;2023-06-24T11:46:24;26.20;99.90
5850;DHT22;2951;47.712;9.400;2023-06-24T11:48:51;26.20;99.90
5850;DHT22;2951;47.712;9.400;2023-06-24T11:51:18;26.40;99.90
5850;DHT22;2951;47.712;9.400;2023-06-24T11:53:45;26.40;99.90
5850;DHT22;2951;47.712;9.400;2023-06-24T11:56:13;26.40;99.90
5850;DHT22;2951;47.712;9.400;2023-06-24T11:58:42;26.30;99.90
5850;DHT22;2951;47.712;9.400;2023-06-24T12:01:09;26.00;99.90
5850;DHT22;2951;47.712;9.400;2023-06-24T12:03:35;26.00;99.90
5850;DHT22;2951;47.712;9.400;2023-06-24T12:06:02;26.10;99.90
5850;DHT22;2951;47.712;9.400;2023-06-24T12:08:29;26.20;99.90
5850;DHT22;2951;47.712;9.400;2023-06-24T12:11:08;26.30;99.90
5850;DHT22;2951;47.712;9.400;2023-06-24T12:13:35;26.60;99.90
5850;DHT22;2951;47.712;9.400;2023-06-24T12:16:01;26.80;99.90
5850;DHT22;2951;47.712;9.400;2023-06-24T12:18:28;27.10;99.90
5850;DHT22;2951;47.712;9.400;2023-06-24T12:20:55;27.10;99.90
5850;DHT22;2951;47.712;9.400;2023-06-24T12:23:22;27.40;99.90
5850;DHT22;2951;47.712;9.400;2023-06-24T12:25:49;27.30;99.90
5850;DHT22;2951;47.712;9.400;2023-06-24T12:28:15;27.50;99.90
5850;DHT22;2951;47.712;9.400;2023-06-24T12:30:42;27.10;99.90
5850;DHT22;2951;47.712;9.400;2023-06-24T12:33:09;27.00;99.90
5850;DHT22;2951;47.712;9.400;2023-06-24T12:35:35;27.10;99.90
5850;DHT22;2951;47.712;9.400;2023-06-24T12:38:02;26.90;99.90
5850;DHT22;2951;47.712;9.400;2023-06-24T12:40:29;26.90;99.90
5850;DHT22;2951;47.712;9.400;2023-06-24T12:42:55;26.90;99.90
5850;DHT22;2951;47.712;9.400;2023-06-24T12:45:24;27.30;99.90
5850;DHT22;2951;47.712;9.400;2023-06-24T12:47:50;27.30;99.90
5850;DHT22;2951;47.712;9.400;2023-06-24T12:50:18;27.30;99.90
5850;DHT22;2951;47.712;9.400;2023-06-24T12:52:45;26.70;99.90
5850;DHT22;2951;47.712;9.400;2023-06-24T12:55:12;26.70;99.90
5850;DHT22;2951;47.712;9.400;2023-06-24T12:57:40;27.00;99.90
5850;DHT22;2951;47.712;9.400;2023-06-24T13:00:07;27.30;99.90
5850;DHT22;2951;47.712;9.400;2023-06-24T13:02:35;26.70;99.90
5850;DHT22;2951;47.712;9.400;2023-06-24T13:05:02;27.10;99.90
5850;DHT22;2951;47.712;9.400;2023-06-24T13:07:30;27.50;99.90
5850;DHT22;2951;47.712;9.400;2023-06-24T13:09:57;27.80;99.90
5850;DHT22;2951;47.712;9.400;2023-06-24T13:12:25;27.50;99.90
5850;DHT22;2951;47.712;9.400;2023-06-24T13:14:52;27.40;99.90
5850;DHT22;2951;47.712;9.400;2023-06-24T13:17:19;27.60;99.90
5850;DHT22;2951;47.712;9.400;2023-06-24T13:19:45;27.80;99.90
5850;DHT22;2951;47.712;9.400;2023-06-24T13:22:12;27.70;99.90
5850;DHT22;2951;47.712;9.400;2023-06-24T13:24:39;28.10;99.90
5850;DHT22;2951;47.712;9.400;2023-06-24T13:27:06;28.40;99.90
5850;DHT22;2951;47.712;9.400;2023-06-24T13:29:33;28.00;99.90
5850;DHT22;2951;47.712;9.400;2023-06-24T13:32:00;27.60;99.90
5850;DHT22;2951;47.712;9.400;2023-06-24T13:34:27;27.70;99.90
5850;DHT22;2951;47.712;9.400;2023-06-24T13:36:54;27.60;99.90
5850;DHT22;2951;47.712;9.400;2023-06-24T13:39:21;27.80;99.90
5850;DHT22;2951;47.712;9.400;2023-06-24T13:41:50;27.80;99.90
5850;DHT22;2951;47.712;9.400;2023-06-24T13:44:19;27.80;99.90
5850;DHT22;2951;47.712;9.400;2023-06-24T13:46:45;27.80;99.90
5850;DHT22;2951;47.712;9.400;2023-06-24T13:49:12;27.80;99.90
5850;DHT22;2951;47.712;9.400;2023-06-24T13:51:39;28.20;99.90
5850;DHT22;2951;47.712;9.400;2023-06-24T13:54:06;27.70;99.90
5850;DHT22;2951;47.712;9.400;2023-06-24T13:56:32;27.40;99.90
5850;DHT22;2951;47.712;9.400;2023-06-24T13:58:59;28.10;99.90
5850;DHT22;2951;47.712;9.400;2023-06-24T14:01:26;29.10;99.90
5850;DHT22;2951;47.712;9.400;2023-06-24T14:03:55;29.60;99.90
5850;DHT22;2951;47.712;9.400;2023-06-24T14:06:22;29.40;99.90
5850;DHT22;2951;47.712;9.400;2023-06-24T14:08:49;29.40;99.90
5850;DHT22;2951;47.712;9.400;2023-06-24T14:11:16;29.60;99.90
5850;DHT22;2951;47.712;9.400;2023-06-24T14:13:43;30.20;99.90
5850;DHT22;2951;47.712;9.400;2023-06-24T14:16:10;30.30;99.90
5850;DHT22;2951;47.712;9.400;2023-06-24T14:18:37;29.50;99.90
5850;DHT22;2951;47.712;9.400;2023-06-24T14:21:05;28.80;99.90
5850;DHT22;2951;47.712;9.400;2023-06-24T14:23:32;30.00;99.90
5850;DHT22;2951;47.712;9.400;2023-06-24T14:25:59;31.00;99.90
5850;DHT22;2951;47.712;9.400;2023-06-24T14:28:26;30.90;99.90
5850;DHT22;2951;47.712;9.400;2023-06-24T14:30:53;31.10;99.90
5850;DHT22;2951;47.712;9.400;2023-06-24T14:33:20;30.80;99.90
5850;DHT22;2951;47.712;9.400;2023-06-24T14:35:47;31.10;99.90
5850;DHT22;2951;47.712;9.400;2023-06-24T14:38:13;31.20;99.90
5850;DHT22;2951;47.712;9.400;2023-06-24T14:40:40;30.90;99.90
5850;DHT22;2951;47.712;9.400;2023-06-24T14:43:07;31.00;99.90
5850;DHT22;2951;47.712;9.400;2023-06-24T14:45:34;31.40;99.90
5850;DHT22;2951;47.712;9.400;2023-06-24T14:48:00;32.10;99.90
5850;DHT22;2951;47.712;9.400;2023-06-24T14:50:27;32.70;99.90
5850;DHT22;2951;47.712;9.400;2023-06-24T14:52:54;33.10;99.90
5850;DHT22;2951;47.712;9.400;2023-06-24T14:55:21;31.90;99.90
5850;DHT22;2951;47.712;9.400;2023-06-24T14:57:48;31.50;99.90
5850;DHT22;2951;47.712;9.400;2023-06-24T15:00:14;31.40;99.90
5850;DHT22;2951;47.712;9.400;2023-06-24T15:02:41;31.30;99.90
5850;DHT22;2951;47.712;9.400;2023-06-24T15:05:08;32.60;99.90
5850;DHT22;2951;47.712;9.400;2023-06-24T15:07:35;32.40;99.90
5850;DHT22;2951;47.712;9.400;2023-06-24T15:10:02;32.20;99.90
5850;DHT22;2951;47.712;9.400;2023-06-24T15:12:29;32.00;99.90
5850;DHT22;2951;47.712;9.400;2023-06-24T15:14:55;31.60;99.90
5850;DHT22;2951;47.712;9.400;2023-06-24T15:17:22;31.60;99.90
5850;DHT22;2951;47.712;9.400;2023-06-24T15:19:50;32.20;99.90
5850;DHT22;2951;47.712;9.400;2023-06-24T15:22:17;32.40;99.90
5850;DHT22;2951;47.712;9.400;2023-06-24T15:24:44;32.20;99.90
5850;DHT22;2951;47.712;9.400;2023-06-24T15:27:11;32.40;99.90
5850;DHT22;2951;47.712;9.400;2023-06-24T15:29:38;32.60;99.90
5850;DHT22;2951;47.712;9.400;2023-06-24T15:32:05;30.90;99.90
5850;DHT22;2951;47.712;9.400;2023-06-24T15:34:32;31.50;99.90
5850;DHT22;2951;47.712;9.400;2023-06-24T15:36:58;31.60;99.90
5850;DHT22;2951;47.712;9.400;2023-06-24T15:39:25;31.90;99.90
5850;DHT22;2951;47.712;9.400;2023-06-24T15:41:52;31.80;99.90
5850;DHT22;2951;47.712;9.400;2023-06-24T15:44:19;31.90;99.90
5850;DHT22;2951;47.712;9.400;2023-06-24T15:46:46;31.50;99.90
5850;DHT22;2951;47.712;9.400;2023-06-24T15:49:14;31.90;99.90
5850;DHT22;2951;47.712;9.400;2023-06-24T15:51:41;32.20;99.90
5850;DHT22;2951;47.712;9.400;2023-06-24T15:54:08;31.70;99.90
5850;DHT22;2951;47.712;9.400;2023-06-24T15:56:35;31.90;99.90
5850;DHT22;2951;47.712;9.400;2023-06-24T15:59:02;31.80;99.90
5850;DHT22;2951;47.712;9.400;2023-06-24T16:01:29;31.60;99.90
5850;DHT22;2951;47.712;9.400;2023-06-24T16:03:56;31.80;99.90
5850;DHT22;2951;47.712;9.400;2023-06-24T16:06:22;32.00;99.90
5850;DHT22;2951;47.712;9.400;2023-06-24T16:08:50;31.90;99.90
5850;DHT22;2951;47.712;9.400;2023-06-24T16:11:17;31.70;99.90
5850;DHT22;2951;47.712;9.400;2023-06-24T16:13:44;30.30;99.90
5850;DHT22;2951;47.712;9.400;2023-06-24T16:16:10;29.90;99.90
5850;DHT22;2951;47.712;9.400;2023-06-24T16:18:37;30.00;99.90
5850;DHT22;2951;47.712;9.400;2023-06-24T16:21:04;29.60;99.90
5850;DHT22;2951;47.712;9.400;2023-06-24T16:23:31;29.20;99.90
5850;DHT22;2951;47.712;9.400;2023-06-24T16:25:58;29.30;99.90